createdAt,value
2023-03-30T00:00:41.051Z,3.8
2023-03-30T00:01:41.625Z,3.8
2023-03-30T00:02:42.364Z,3.8
2023-03-30T00:03:43.129Z,3.7
2023-03-30T00:04:43.639Z,4.0
2023-03-30T00:05:44.255Z,3.9
2023-03-30T00:06:44.847Z,3.9
2023-03-30T00:07:45.439Z,3.7
2023-03-30T00:08:46.046Z,3.7
2023-03-30T00:09:46.636Z,3.5
2023-03-30T00:10:47.234Z,3.3
2023-03-30T00:11:47.824Z,3.8
2023-03-30T00:12:48.421Z,3.2
2023-03-30T00:13:49.029Z,3.6
2023-03-30T00:14:49.623Z,3.7
2023-03-30T00:15:50.214Z,3.1
2023-03-30T00:16:50.843Z,3.6
2023-03-30T00:17:51.404Z,3.5
2023-03-30T00:18:52.056Z,3.0
2023-03-30T00:19:52.767Z,3.8
2023-03-30T00:20:53.357Z,3.2
2023-03-30T00:21:53.946Z,3.6
2023-03-30T00:22:54.550Z,3.9
2023-03-30T00:23:55.134Z,4.3
2023-03-30T00:24:55.755Z,3.3
2023-03-30T00:25:56.339Z,3.6
2023-03-30T00:26:56.934Z,3.7
2023-03-30T00:27:57.544Z,3.4
2023-03-30T00:28:58.141Z,3.2
2023-03-30T00:29:58.754Z,3.3
2023-03-30T00:30:59.357Z,3.2
2023-03-30T00:31:59.980Z,3.1
2023-03-30T00:33:00.594Z,3.6
2023-03-30T00:34:01.170Z,3.3
2023-03-30T00:35:01.778Z,3.5
2023-03-30T00:36:02.405Z,4.0
2023-03-30T00:37:02.974Z,3.5
2023-03-30T00:38:03.588Z,3.6
2023-03-30T00:39:04.174Z,3.5
2023-03-30T00:40:04.766Z,3.1
2023-03-30T00:41:05.532Z,3.2
2023-03-30T00:42:06.223Z,3.3
2023-03-30T00:43:06.813Z,3.8
2023-03-30T00:44:07.415Z,3.4
2023-03-30T00:45:07.999Z,2.9
2023-03-30T00:46:08.662Z,3.0
2023-03-30T00:47:09.241Z,3.1
2023-03-30T00:48:09.904Z,1.9
2023-03-30T00:49:10.526Z,2.7
2023-03-30T00:50:11.101Z,3.0
2023-03-30T00:51:11.688Z,2.7
2023-03-30T00:52:12.286Z,2.6
2023-03-30T00:53:12.893Z,2.6
2023-03-30T00:54:13.481Z,2.9
2023-03-30T00:55:14.090Z,2.7
2023-03-30T00:56:14.685Z,2.6
2023-03-30T00:57:15.331Z,2.7
2023-03-30T00:58:15.879Z,2.7
2023-03-30T00:59:16.467Z,2.4
2023-03-30T01:00:17.060Z,2.2
2023-03-30T01:01:17.745Z,2.1
2023-03-30T01:02:18.335Z,2.1
2023-03-30T01:03:19.055Z,2.0
2023-03-30T01:04:19.647Z,2.4
2023-03-30T01:05:20.243Z,2.2
2023-03-30T01:06:20.834Z,2.2
2023-03-30T01:07:21.428Z,2.2
2023-03-30T01:08:22.024Z,2.4
2023-03-30T01:09:22.636Z,1.8
2023-03-30T01:10:23.249Z,2.5
2023-03-30T01:11:23.857Z,2.2
2023-03-30T01:12:24.448Z,2.4
2023-03-30T01:13:25.042Z,2.2
2023-03-30T01:14:25.632Z,2.6
2023-03-30T01:15:26.245Z,2.0
2023-03-30T01:16:26.838Z,2.3
2023-03-30T01:17:27.444Z,2.5
2023-03-30T01:18:28.024Z,1.8
2023-03-30T01:19:28.634Z,2.5
2023-03-30T01:20:29.224Z,1.9
2023-03-30T01:21:29.836Z,1.9
2023-03-30T01:22:30.433Z,1.7
2023-03-30T01:23:31.023Z,1.9
2023-03-30T01:24:31.631Z,1.8
2023-03-30T01:25:32.209Z,2.1
2023-03-30T01:26:32.820Z,2.0
2023-03-30T01:27:33.399Z,2.2
2023-03-30T01:28:33.991Z,2.1
2023-03-30T01:29:34.618Z,2.1
2023-03-30T01:30:35.210Z,1.9
2023-03-30T01:31:35.881Z,1.9
2023-03-30T01:32:36.424Z,2.5
2023-03-30T01:33:37.006Z,1.9
2023-03-30T01:34:37.596Z,1.9
2023-03-30T01:35:38.311Z,1.8
2023-03-30T01:36:38.955Z,1.4
2023-03-30T01:37:39.556Z,1.9
2023-03-30T01:38:40.141Z,1.8
2023-03-30T01:39:40.732Z,2.2
2023-03-30T01:40:41.322Z,1.5
2023-03-30T01:41:41.926Z,1.7
2023-03-30T01:42:42.510Z,1.7
2023-03-30T01:43:43.199Z,1.7
2023-03-30T01:44:43.796Z,1.9
2023-03-30T01:45:44.381Z,2.2
2023-03-30T01:46:45.051Z,1.8
2023-03-30T01:47:45.793Z,1.8
2023-03-30T01:48:46.344Z,1.8
2023-03-30T01:49:46.934Z,1.8
2023-03-30T01:50:47.547Z,2.0
2023-03-30T01:51:48.165Z,1.7
2023-03-30T01:52:50.281Z,1.9
2023-03-30T01:53:50.339Z,1.7
2023-03-30T01:54:50.933Z,2.3
2023-03-30T01:55:51.525Z,1.8
2023-03-30T01:56:52.164Z,1.5
2023-03-30T01:57:52.726Z,1.7
2023-03-30T01:58:53.311Z,1.5
2023-03-30T01:59:53.896Z,1.8
2023-03-30T02:00:54.496Z,1.7
2023-03-30T02:01:55.128Z,1.9
2023-03-30T02:02:55.826Z,1.9
2023-03-30T02:03:56.554Z,1.8
2023-03-30T02:04:57.215Z,2.3
2023-03-30T02:05:57.803Z,1.4
2023-03-30T02:06:58.406Z,1.7
2023-03-30T02:07:58.993Z,1.8
2023-03-30T02:08:59.605Z,1.6
2023-03-30T02:10:00.222Z,2.2
2023-03-30T02:11:00.892Z,1.9
2023-03-30T02:12:01.484Z,1.9
2023-03-30T02:13:02.076Z,1.8
2023-03-30T02:14:02.693Z,1.7
2023-03-30T02:15:03.284Z,1.6
2023-03-30T02:16:03.883Z,1.6
2023-03-30T02:17:04.471Z,1.9
2023-03-30T02:18:05.197Z,1.7
2023-03-30T02:19:05.673Z,1.6
2023-03-30T02:20:06.281Z,1.6
2023-03-30T02:21:06.915Z,1.9
2023-03-30T02:22:07.474Z,1.5
2023-03-30T02:23:08.058Z,1.4
2023-03-30T02:24:08.656Z,1.6
2023-03-30T02:25:09.244Z,1.5
2023-03-30T02:26:09.840Z,1.7
2023-03-30T02:27:10.438Z,2.0
2023-03-30T02:28:11.038Z,3.8
2023-03-30T02:29:11.636Z,1.8
2023-03-30T02:30:12.226Z,1.9
2023-03-30T02:31:12.857Z,2.4
2023-03-30T02:32:13.439Z,2.2
2023-03-30T02:33:14.039Z,2.2
2023-03-30T02:34:14.640Z,2.2
2023-03-30T02:35:15.255Z,3.3
2023-03-30T02:36:15.907Z,3.0
2023-03-30T02:37:16.450Z,3.2
2023-03-30T02:38:17.043Z,2.7
2023-03-30T02:39:17.642Z,3.2
2023-03-30T02:40:18.249Z,3.6
2023-03-30T02:41:18.845Z,2.8
2023-03-30T02:42:19.427Z,3.0
2023-03-30T02:43:20.022Z,2.5
2023-03-30T02:44:20.611Z,3.4
2023-03-30T02:45:21.207Z,3.0
2023-03-30T02:46:21.936Z,2.6
2023-03-30T02:47:22.568Z,3.1
2023-03-30T02:48:23.159Z,3.3
2023-03-30T02:49:23.770Z,2.8
2023-03-30T02:50:24.362Z,2.8
2023-03-30T02:51:24.959Z,3.2
2023-03-30T02:52:25.549Z,3.5
2023-03-30T02:53:26.145Z,2.7
2023-03-30T02:54:26.753Z,3.3
2023-03-30T02:55:27.348Z,3.1
2023-03-30T02:56:27.942Z,2.8
2023-03-30T02:57:28.598Z,3.3
2023-03-30T02:58:29.209Z,3.4
2023-03-30T02:59:29.806Z,2.9
2023-03-30T03:00:30.429Z,3.8
2023-03-30T03:01:31.036Z,3.3
2023-03-30T03:02:31.708Z,3.0
2023-03-30T03:03:32.398Z,3.9
2023-03-30T03:04:33.057Z,3.4
2023-03-30T03:05:33.645Z,3.4
2023-03-30T03:06:34.240Z,3.5
2023-03-30T03:07:34.828Z,3.9
2023-03-30T03:08:35.422Z,3.7
2023-03-30T03:09:36.016Z,3.5
2023-03-30T03:10:36.604Z,3.4
2023-03-30T03:11:37.195Z,3.2
2023-03-30T03:12:37.800Z,3.8
2023-03-30T03:13:38.385Z,4.0
2023-03-30T03:14:38.978Z,3.3
2023-03-30T03:15:39.570Z,3.4
2023-03-30T03:16:40.202Z,3.7
2023-03-30T03:17:40.796Z,4.4
2023-03-30T03:18:41.400Z,4.9
2023-03-30T03:19:41.983Z,6.2
2023-03-30T03:20:42.600Z,5.7
2023-03-30T03:21:43.189Z,6.2
2023-03-30T03:22:43.785Z,6.7
2023-03-30T03:23:44.379Z,5.6
2023-03-30T03:24:44.970Z,5.8
2023-03-30T03:25:45.567Z,5.6
2023-03-30T03:26:46.154Z,4.8
2023-03-30T03:27:46.748Z,4.7
2023-03-30T03:28:47.373Z,5.0
2023-03-30T03:29:47.936Z,4.2
2023-03-30T03:30:48.566Z,4.2
2023-03-30T03:31:49.176Z,4.2
2023-03-30T03:32:49.808Z,3.7
2023-03-30T03:33:50.373Z,3.9
2023-03-30T03:34:50.965Z,4.1
2023-03-30T03:35:51.595Z,3.2
2023-03-30T03:36:52.154Z,3.3
2023-03-30T03:37:52.748Z,3.1
2023-03-30T03:38:53.370Z,3.2
2023-03-30T03:39:53.978Z,3.2
2023-03-30T03:40:54.565Z,3.0
2023-03-30T03:41:55.157Z,2.8
2023-03-30T03:42:55.755Z,2.8
2023-03-30T03:43:56.362Z,2.5
2023-03-30T03:44:56.977Z,3.1
2023-03-30T03:45:57.599Z,2.7
2023-03-30T03:46:58.217Z,2.4
2023-03-30T03:47:58.819Z,2.7
2023-03-30T03:48:59.396Z,1.8
2023-03-30T03:49:59.962Z,2.4
2023-03-30T03:51:00.553Z,2.7
2023-03-30T03:52:01.158Z,2.2
2023-03-30T03:53:01.750Z,2.4
2023-03-30T03:54:02.331Z,2.0
2023-03-30T03:55:02.923Z,2.1
2023-03-30T03:56:03.518Z,2.4
2023-03-30T03:57:04.138Z,2.3
2023-03-30T03:58:04.702Z,2.5
2023-03-30T03:59:05.289Z,2.0
2023-03-30T04:00:05.883Z,2.3
2023-03-30T04:01:06.593Z,2.4
2023-03-30T04:02:07.360Z,2.6
2023-03-30T04:03:07.963Z,2.3
2023-03-30T04:04:08.545Z,2.0
2023-03-30T04:05:09.134Z,1.9
2023-03-30T04:06:09.740Z,2.1
2023-03-30T04:07:10.333Z,2.2
2023-03-30T04:08:11.121Z,2.2
2023-03-30T04:09:11.721Z,2.0
2023-03-30T04:10:12.311Z,2.1
2023-03-30T04:11:12.901Z,2.0
2023-03-30T04:12:13.495Z,2.1
2023-03-30T04:13:14.109Z,2.0
2023-03-30T04:14:14.700Z,1.7
2023-03-30T04:15:15.290Z,2.1
2023-03-30T04:16:15.924Z,2.1
2023-03-30T04:17:16.485Z,1.8
2023-03-30T04:18:17.104Z,1.9
2023-03-30T04:19:17.710Z,1.8
2023-03-30T04:20:18.307Z,2.2
2023-03-30T04:21:18.899Z,1.9
2023-03-30T04:22:19.500Z,2.0
2023-03-30T04:23:20.085Z,2.1
2023-03-30T04:24:20.695Z,1.8
2023-03-30T04:25:22.459Z,2.0
2023-03-30T04:26:22.893Z,1.7
2023-03-30T04:27:23.488Z,2.7
2023-03-30T04:28:24.080Z,2.4
2023-03-30T04:29:24.690Z,2.6
2023-03-30T04:30:25.263Z,2.3
2023-03-30T04:31:25.905Z,1.7
2023-03-30T04:32:26.519Z,2.0
2023-03-30T04:33:27.095Z,1.9
2023-03-30T04:34:27.670Z,2.4
2023-03-30T04:35:28.266Z,1.9
2023-03-30T04:36:28.875Z,2.0
2023-03-30T04:37:29.469Z,3.4
2023-03-30T04:38:30.075Z,1.8
2023-03-30T04:39:30.676Z,1.6
2023-03-30T04:40:31.268Z,2.0
2023-03-30T04:41:31.861Z,1.8
2023-03-30T04:42:32.477Z,2.5
2023-03-30T04:43:33.071Z,1.9
2023-03-30T04:44:33.666Z,1.8
2023-03-30T04:45:34.271Z,1.7
2023-03-30T04:46:34.853Z,3.3
2023-03-30T04:47:35.524Z,2.2
2023-03-30T04:48:36.094Z,1.5
2023-03-30T04:49:36.706Z,1.6
2023-03-30T04:50:37.325Z,1.9
2023-03-30T04:51:37.894Z,1.9
2023-03-30T04:52:38.491Z,1.7
2023-03-30T04:53:39.104Z,1.9
2023-03-30T04:54:39.705Z,1.7
2023-03-30T04:55:40.300Z,1.8
2023-03-30T04:56:40.957Z,2.0
2023-03-30T04:57:41.523Z,2.3
2023-03-30T04:58:42.124Z,2.9
2023-03-30T04:59:42.738Z,2.8
2023-03-30T05:00:43.359Z,1.7
2023-03-30T05:01:44.178Z,1.9
2023-03-30T05:02:44.709Z,2.1
2023-03-30T05:03:45.318Z,1.8
2023-03-30T05:04:45.914Z,2.0
2023-03-30T05:05:46.507Z,2.0
2023-03-30T05:06:47.107Z,1.6
2023-03-30T05:07:47.709Z,1.7
2023-03-30T05:08:48.315Z,3.3
2023-03-30T05:09:48.919Z,1.7
2023-03-30T05:10:49.509Z,1.8
2023-03-30T05:11:50.104Z,1.9
2023-03-30T05:12:50.702Z,1.8
2023-03-30T05:13:51.300Z,6.1
2023-03-30T05:14:51.896Z,2.0
2023-03-30T05:15:52.495Z,1.8
2023-03-30T05:16:53.153Z,1.8
2023-03-30T05:17:53.894Z,1.5
2023-03-30T05:18:54.466Z,1.8
2023-03-30T05:19:55.060Z,2.0
2023-03-30T05:20:55.678Z,1.8
2023-03-30T05:21:56.253Z,1.7
2023-03-30T05:22:56.865Z,1.8
2023-03-30T05:23:57.465Z,1.7
2023-03-30T05:24:58.060Z,2.0
2023-03-30T05:25:58.655Z,1.7
2023-03-30T05:26:59.257Z,1.8
2023-03-30T05:27:59.852Z,1.8
2023-03-30T05:29:00.466Z,1.8
2023-03-30T05:30:01.061Z,1.8
2023-03-30T05:31:01.807Z,2.1
2023-03-30T05:32:02.606Z,1.4
2023-03-30T05:33:03.232Z,1.6
2023-03-30T05:34:03.802Z,1.8
2023-03-30T05:35:04.415Z,1.8
2023-03-30T05:36:05.066Z,1.7
2023-03-30T05:37:05.625Z,1.7
2023-03-30T05:38:06.228Z,1.4
2023-03-30T05:39:06.841Z,1.8
2023-03-30T05:40:07.498Z,1.9
2023-03-30T05:41:08.058Z,1.9
2023-03-30T05:42:08.658Z,2.1
2023-03-30T05:43:09.441Z,1.7
2023-03-30T05:44:10.061Z,1.9
2023-03-30T05:45:10.658Z,2.1
2023-03-30T05:46:11.287Z,1.8
2023-03-30T05:47:11.865Z,1.6
2023-03-30T05:48:12.458Z,1.9
2023-03-30T05:49:13.067Z,2.1
2023-03-30T05:50:13.672Z,2.1
2023-03-30T05:51:14.262Z,1.8
2023-03-30T05:52:14.866Z,2.0
2023-03-30T05:53:15.461Z,2.5
2023-03-30T05:54:16.064Z,2.6
2023-03-30T05:55:16.646Z,2.0
2023-03-30T05:56:17.246Z,2.3
2023-03-30T05:57:17.933Z,2.0
2023-03-30T05:58:18.459Z,1.7
2023-03-30T05:59:19.055Z,2.1
2023-03-30T06:00:19.649Z,2.2
2023-03-30T06:01:20.246Z,2.5
2023-03-30T06:02:20.878Z,2.5
2023-03-30T06:03:21.564Z,1.9
2023-03-30T06:04:22.351Z,2.1
2023-03-30T06:05:22.973Z,2.7
2023-03-30T06:06:23.572Z,2.4
2023-03-30T06:07:24.177Z,2.5
2023-03-30T06:08:24.791Z,2.1
2023-03-30T06:09:25.380Z,2.6
2023-03-30T06:10:25.981Z,2.3
2023-03-30T06:11:26.581Z,2.3
2023-03-30T06:12:27.197Z,2.3
2023-03-30T06:13:27.791Z,2.1
2023-03-30T06:14:28.390Z,2.1
2023-03-30T06:15:29.006Z,1.9
2023-03-30T06:16:29.622Z,2.0
2023-03-30T06:17:30.260Z,1.8
2023-03-30T06:18:30.823Z,1.8
2023-03-30T06:19:31.412Z,1.7
2023-03-30T06:20:32.039Z,2.3
2023-03-30T06:21:32.623Z,2.0
2023-03-30T06:22:33.241Z,2.0
2023-03-30T06:23:33.859Z,1.8
2023-03-30T06:24:34.460Z,2.4
2023-03-30T06:25:35.061Z,1.8
2023-03-30T06:26:35.674Z,2.3
2023-03-30T06:27:36.274Z,2.2
2023-03-30T06:28:36.872Z,1.8
2023-03-30T06:29:37.501Z,1.7
2023-03-30T06:30:38.064Z,2.4
2023-03-30T06:31:38.753Z,2.0
2023-03-30T06:32:39.384Z,2.2
2023-03-30T06:33:41.672Z,2.7
2023-03-30T06:34:41.531Z,3.1
2023-03-30T06:35:42.130Z,2.7
2023-03-30T06:36:44.504Z,2.1
2023-03-30T06:37:43.340Z,2.3
2023-03-30T06:38:43.940Z,1.8
2023-03-30T06:39:44.535Z,1.7
2023-03-30T06:40:45.155Z,2.1
2023-03-30T06:41:45.762Z,2.1
2023-03-30T06:42:46.351Z,2.2
2023-03-30T06:43:46.951Z,2.2
2023-03-30T06:44:48.763Z,2.0
2023-03-30T06:45:48.228Z,2.0
2023-03-30T06:46:48.790Z,2.0
2023-03-30T06:47:49.508Z,2.2
2023-03-30T06:48:50.044Z,1.8
2023-03-30T06:49:50.648Z,1.8
2023-03-30T06:50:51.262Z,1.9
2023-03-30T06:51:51.877Z,2.1
2023-03-30T06:52:52.513Z,2.1
2023-03-30T06:53:53.089Z,2.2
2023-03-30T06:54:53.712Z,2.1
2023-03-30T06:55:54.314Z,2.5
2023-03-30T06:56:54.985Z,2.1
2023-03-30T06:57:55.589Z,1.8
2023-03-30T06:58:56.206Z,1.8
2023-03-30T06:59:56.823Z,2.1
2023-03-30T07:00:57.466Z,1.8
2023-03-30T07:01:58.131Z,2.3
2023-03-30T07:02:58.787Z,2.4
2023-03-30T07:03:59.369Z,1.9
2023-03-30T07:04:59.946Z,2.1
2023-03-30T07:06:00.545Z,2.1
2023-03-30T07:07:01.145Z,2.4
2023-03-30T07:08:01.745Z,2.5
2023-03-30T07:09:02.342Z,2.3
2023-03-30T07:10:02.936Z,2.2
2023-03-30T07:11:03.727Z,2.3
2023-03-30T07:12:04.434Z,1.5
2023-03-30T07:13:05.031Z,1.6
2023-03-30T07:14:05.644Z,1.9
2023-03-30T07:15:06.244Z,1.5
2023-03-30T07:16:07.021Z,1.6
2023-03-30T07:17:07.967Z,2.0
2023-03-30T07:18:08.649Z,1.9
2023-03-30T07:19:09.194Z,1.6
2023-03-30T07:20:09.912Z,1.6
2023-03-30T07:21:10.594Z,2.0
2023-03-30T07:22:11.415Z,2.1
2023-03-30T07:23:12.193Z,2.0
2023-03-30T07:24:12.990Z,1.7
2023-03-30T07:25:13.683Z,1.8
2023-03-30T07:26:14.375Z,1.8
2023-03-30T07:27:15.088Z,1.8
2023-03-30T07:28:15.850Z,2.0
2023-03-30T07:29:16.727Z,1.7
2023-03-30T07:30:21.898Z,1.6
2023-03-30T07:31:18.975Z,1.7
2023-03-30T07:32:19.604Z,1.9
2023-03-30T07:33:20.274Z,1.5
2023-03-30T07:34:20.830Z,1.7
2023-03-30T07:35:21.452Z,2.2
2023-03-30T07:36:22.116Z,2.0
2023-03-30T07:37:22.666Z,1.5
2023-03-30T07:38:23.262Z,1.7
2023-03-30T07:39:23.868Z,2.0
2023-03-30T07:40:24.607Z,2.1
2023-03-30T07:41:25.276Z,2.3
2023-03-30T07:42:25.865Z,2.8
2023-03-30T07:43:26.471Z,3.2
2023-03-30T07:44:27.063Z,2.2
2023-03-30T07:45:27.674Z,3.1
2023-03-30T07:46:28.336Z,2.8
2023-03-30T07:47:28.908Z,2.0
2023-03-30T07:48:29.501Z,6.1
2023-03-30T07:49:30.096Z,4.5
2023-03-30T07:50:30.689Z,1.8
2023-03-30T07:51:31.298Z,1.8
2023-03-30T07:52:31.894Z,2.0
2023-03-30T07:53:32.527Z,1.8
2023-03-30T07:54:33.137Z,2.0
2023-03-30T07:55:33.738Z,2.3
2023-03-30T07:56:34.337Z,2.2
2023-03-30T07:57:34.946Z,2.0
2023-03-30T07:58:35.537Z,1.8
2023-03-30T07:59:36.139Z,1.8
2023-03-30T08:00:36.761Z,1.6
2023-03-30T08:01:37.357Z,1.8
2023-03-30T08:02:38.050Z,2.0
2023-03-30T08:03:38.871Z,2.7
2023-03-30T08:04:39.685Z,1.7
2023-03-30T08:05:40.278Z,2.2
2023-03-30T08:06:40.874Z,1.8
2023-03-30T08:07:41.475Z,1.9
2023-03-30T08:08:42.077Z,2.2
2023-03-30T08:09:42.674Z,2.0
2023-03-30T08:10:43.292Z,1.9
2023-03-30T08:11:43.904Z,2.1
2023-03-30T08:12:44.491Z,2.4
2023-03-30T08:13:45.106Z,2.1
2023-03-30T08:14:45.722Z,2.4
2023-03-30T08:15:46.359Z,1.9
2023-03-30T08:16:46.918Z,2.2
2023-03-30T08:17:47.573Z,1.9
2023-03-30T08:18:48.152Z,2.0
2023-03-30T08:19:48.751Z,2.2
2023-03-30T08:20:49.349Z,2.3
2023-03-30T08:21:49.945Z,2.2
2023-03-30T08:22:50.544Z,2.3
2023-03-30T08:23:51.160Z,2.2
2023-03-30T08:24:51.762Z,2.1
2023-03-30T08:25:52.373Z,2.1
2023-03-30T08:26:53.039Z,2.0
2023-03-30T08:27:53.590Z,1.9
2023-03-30T08:28:54.214Z,2.6
2023-03-30T08:29:54.817Z,2.3
2023-03-30T08:30:55.418Z,2.3
2023-03-30T08:31:56.067Z,2.0
2023-03-30T08:32:56.665Z,2.1
2023-03-30T08:33:57.253Z,2.4
2023-03-30T08:34:57.833Z,2.2
2023-03-30T08:35:58.473Z,2.0
2023-03-30T08:36:59.050Z,2.1
2023-03-30T08:37:59.647Z,2.2
2023-03-30T08:39:00.245Z,1.9
2023-03-30T08:40:00.875Z,2.3
2023-03-30T08:41:01.632Z,2.2
2023-03-30T08:42:02.289Z,1.9
2023-03-30T08:43:02.914Z,2.2
2023-03-30T08:44:03.506Z,2.0
2023-03-30T08:45:04.111Z,1.8
2023-03-30T08:46:04.752Z,2.2
2023-03-30T08:47:05.319Z,2.2
2023-03-30T08:48:05.957Z,1.7
2023-03-30T08:49:06.749Z,2.2
2023-03-30T08:50:07.354Z,1.9
2023-03-30T08:51:07.973Z,2.1
2023-03-30T08:52:08.571Z,2.0
2023-03-30T08:53:09.177Z,1.9
2023-03-30T08:54:09.809Z,1.9
2023-03-30T08:55:10.388Z,2.3
2023-03-30T08:56:10.995Z,1.7
2023-03-30T08:57:11.680Z,2.0
2023-03-30T08:58:12.217Z,2.2
2023-03-30T08:59:12.835Z,1.8
2023-03-30T09:00:13.458Z,2.4
2023-03-30T09:01:14.124Z,1.9
2023-03-30T09:02:14.689Z,1.4
2023-03-30T09:03:15.299Z,1.9
2023-03-30T09:04:15.889Z,1.7
2023-03-30T09:05:16.591Z,2.2
2023-03-30T09:06:17.167Z,2.6
2023-03-30T09:07:17.763Z,1.9
2023-03-30T09:08:18.363Z,1.9
2023-03-30T09:09:18.964Z,1.8
2023-03-30T09:10:19.580Z,1.7
2023-03-30T09:11:20.180Z,2.1
2023-03-30T09:12:20.779Z,1.9
2023-03-30T09:13:21.374Z,1.9
2023-03-30T09:14:21.976Z,1.9
2023-03-30T09:15:22.582Z,1.7
2023-03-30T09:16:23.228Z,1.8
2023-03-30T09:17:23.784Z,2.3
2023-03-30T09:18:24.383Z,2.0
2023-03-30T09:19:24.994Z,2.3
2023-03-30T09:20:25.587Z,1.9
2023-03-30T09:21:26.217Z,1.6
2023-03-30T09:22:26.807Z,1.6
2023-03-30T09:23:27.425Z,1.9
2023-03-30T09:24:28.026Z,2.1
2023-03-30T09:25:28.623Z,1.9
2023-03-30T09:26:29.227Z,1.8
2023-03-30T09:27:29.828Z,1.9
2023-03-30T09:28:30.426Z,2.0
2023-03-30T09:29:31.028Z,1.9
2023-03-30T09:30:31.626Z,2.2
2023-03-30T09:31:32.309Z,2.4
2023-03-30T09:32:32.946Z,2.1
2023-03-30T09:33:33.605Z,1.8
2023-03-30T09:34:34.217Z,2.2
2023-03-30T09:35:34.833Z,2.0
2023-03-30T09:36:35.406Z,2.3
2023-03-30T09:37:36.007Z,1.9
2023-03-30T09:38:36.604Z,2.4
2023-03-30T09:39:37.205Z,2.5
2023-03-30T09:40:37.850Z,1.8
2023-03-30T09:41:38.425Z,1.8
2023-03-30T09:42:39.026Z,1.9
2023-03-30T09:43:39.664Z,1.8
2023-03-30T09:44:40.264Z,2.4
2023-03-30T09:45:40.933Z,2.2
2023-03-30T09:46:41.623Z,2.1
2023-03-30T09:47:42.148Z,1.8
2023-03-30T09:48:42.773Z,1.9
2023-03-30T09:49:43.333Z,2.5
2023-03-30T09:50:43.934Z,2.0
2023-03-30T09:51:44.550Z,1.8
2023-03-30T09:52:45.158Z,2.4
2023-03-30T09:53:45.748Z,1.9
2023-03-30T09:54:46.365Z,1.4
2023-03-30T09:55:46.942Z,1.9
2023-03-30T09:56:47.654Z,1.6
2023-03-30T09:57:48.270Z,2.2
2023-03-30T09:58:48.875Z,1.8
2023-03-30T09:59:49.474Z,1.7
2023-03-30T10:00:50.063Z,1.8
2023-03-30T10:01:50.672Z,1.7
2023-03-30T10:02:51.294Z,2.0
2023-03-30T10:03:52.029Z,2.1
2023-03-30T10:04:52.795Z,2.1
2023-03-30T10:05:53.269Z,2.5
2023-03-30T10:06:53.871Z,1.9
2023-03-30T10:07:54.467Z,2.0
2023-03-30T10:08:55.072Z,2.2
2023-03-30T10:09:55.739Z,2.0
2023-03-30T10:10:56.284Z,2.1
2023-03-30T10:11:56.886Z,2.3
2023-03-30T10:12:57.488Z,2.2
2023-03-30T10:13:58.103Z,2.6
2023-03-30T10:14:58.701Z,2.6
2023-03-30T10:15:59.335Z,2.3
2023-03-30T10:16:59.935Z,1.8
2023-03-30T10:18:00.547Z,2.0
2023-03-30T10:19:01.118Z,2.4
2023-03-30T10:20:13.362Z,1.9
2023-03-30T10:21:03.312Z,2.0
2023-03-30T10:22:03.913Z,1.8
2023-03-30T10:23:04.507Z,1.9
2023-03-30T10:24:05.112Z,1.8
2023-03-30T10:25:07.452Z,1.8
2023-03-30T10:26:06.467Z,1.7
2023-03-30T10:27:07.160Z,2.2
2023-03-30T10:28:07.762Z,1.7
2023-03-30T10:29:08.361Z,2.0
2023-03-30T10:30:08.958Z,1.9
2023-03-30T10:31:09.594Z,2.2
2023-03-30T10:32:10.177Z,1.9
2023-03-30T10:33:10.878Z,1.6
2023-03-30T10:34:11.446Z,1.9
2023-03-30T10:35:12.045Z,2.1
2023-03-30T10:36:12.692Z,2.2
2023-03-30T10:37:13.261Z,2.3
2023-03-30T10:38:13.868Z,1.8
2023-03-30T10:39:14.476Z,2.1
2023-03-30T10:40:15.073Z,1.9
2023-03-30T10:41:15.672Z,2.4
2023-03-30T10:42:16.274Z,1.7
2023-03-30T10:43:16.877Z,2.3
2023-03-30T10:44:17.484Z,1.9
2023-03-30T10:45:18.078Z,2.3
2023-03-30T10:46:20.016Z,2.5
2023-03-30T10:47:19.328Z,2.1
2023-03-30T10:48:20.040Z,2.2
2023-03-30T10:49:20.638Z,2.0
2023-03-30T10:50:21.229Z,3.4
2023-03-30T10:51:21.837Z,2.1
2023-03-30T10:52:22.432Z,2.0
2023-03-30T10:53:23.231Z,2.1
2023-03-30T10:54:23.839Z,1.6
2023-03-30T10:55:24.444Z,2.4
2023-03-30T10:56:25.037Z,2.0
2023-03-30T10:57:25.727Z,2.8
2023-03-30T10:58:26.325Z,2.1
2023-03-30T10:59:26.913Z,2.2
2023-03-30T11:00:27.527Z,2.0
2023-03-30T11:01:28.209Z,2.0
2023-03-30T11:02:28.804Z,2.1
2023-03-30T11:03:29.448Z,2.3
2023-03-30T11:04:30.319Z,2.2
2023-03-30T11:05:32.707Z,1.8
2023-03-30T11:06:32.557Z,2.2
2023-03-30T11:07:33.178Z,2.9
2023-03-30T11:08:33.789Z,2.1
2023-03-30T11:09:34.404Z,2.3
2023-03-30T11:10:35.017Z,1.9
2023-03-30T11:11:35.620Z,2.1
2023-03-30T11:12:36.223Z,2.3
2023-03-30T11:13:36.820Z,1.8
2023-03-30T11:14:37.426Z,1.8
2023-03-30T11:15:38.048Z,2.3
2023-03-30T11:16:38.692Z,2.3
2023-03-30T11:17:39.264Z,2.1
2023-03-30T11:18:39.965Z,2.3
2023-03-30T11:19:40.536Z,2.3
2023-03-30T11:20:41.153Z,1.8
2023-03-30T11:21:41.740Z,2.1
2023-03-30T11:22:42.355Z,2.1
2023-03-30T11:23:42.973Z,2.5
2023-03-30T11:24:43.572Z,2.2
2023-03-30T11:25:44.173Z,1.6
2023-03-30T11:26:44.775Z,1.9
2023-03-30T11:27:45.376Z,1.6
2023-03-30T11:28:45.979Z,1.5
2023-03-30T11:29:46.582Z,1.9
2023-03-30T11:30:47.179Z,1.8
2023-03-30T11:31:47.874Z,1.9
2023-03-30T11:32:48.499Z,1.9
2023-03-30T11:33:49.056Z,2.2
2023-03-30T11:34:49.658Z,2.0
2023-03-30T11:35:50.297Z,1.8
2023-03-30T11:36:50.887Z,1.8
2023-03-30T11:37:51.475Z,1.7
2023-03-30T11:38:52.083Z,1.5
2023-03-30T11:39:52.712Z,1.7
2023-03-30T11:40:53.283Z,1.5
2023-03-30T11:41:53.884Z,1.7
2023-03-30T11:42:54.485Z,1.7
2023-03-30T11:43:55.086Z,2.3
2023-03-30T11:44:55.690Z,1.9
2023-03-30T11:45:56.333Z,2.2
2023-03-30T11:46:56.910Z,1.9
2023-03-30T11:47:57.552Z,1.7
2023-03-30T11:48:58.171Z,2.1
2023-03-30T11:49:58.735Z,1.7
2023-03-30T11:50:59.335Z,1.9
2023-03-30T11:51:59.950Z,1.7
2023-03-30T11:53:00.539Z,2.0
2023-03-30T11:54:01.140Z,1.7
2023-03-30T11:55:04.027Z,2.0
2023-03-30T11:56:03.530Z,1.6
2023-03-30T11:57:04.317Z,1.8
2023-03-30T11:58:06.301Z,2.2
2023-03-30T11:59:06.493Z,1.7
2023-03-30T12:00:07.118Z,1.8
2023-03-30T12:01:07.875Z,1.6
2023-03-30T12:02:08.554Z,1.9
2023-03-30T12:03:09.234Z,1.6
2023-03-30T12:04:09.907Z,1.2
2023-03-30T12:05:10.489Z,1.4
2023-03-30T12:06:11.154Z,1.9
2023-03-30T12:07:11.748Z,1.5
2023-03-30T12:08:12.341Z,1.8
2023-03-30T12:09:12.942Z,1.5
2023-03-30T12:10:13.548Z,2.1
2023-03-30T12:11:14.183Z,1.6
2023-03-30T12:12:14.757Z,2.0
2023-03-30T12:13:15.362Z,2.0
2023-03-30T12:14:15.958Z,1.6
2023-03-30T12:15:16.573Z,2.0
2023-03-30T12:16:17.246Z,1.6
2023-03-30T12:17:17.837Z,1.7
2023-03-30T12:18:18.455Z,1.5
2023-03-30T12:19:19.060Z,1.9
2023-03-30T12:20:19.657Z,1.5
2023-03-30T12:21:20.260Z,1.4
2023-03-30T12:22:20.856Z,1.5
2023-03-30T12:23:21.459Z,1.6
2023-03-30T12:24:22.052Z,1.4
2023-03-30T12:25:22.660Z,1.3
2023-03-30T12:26:23.248Z,1.3
2023-03-30T12:27:23.847Z,1.4
2023-03-30T12:30:27.195Z,1.6
2023-03-30T12:31:27.835Z,1.4
2023-03-30T12:32:29.041Z,1.4
2023-03-30T12:33:29.959Z,1.3
2023-03-30T12:34:30.558Z,1.5
2023-03-30T12:35:31.196Z,1.4
2023-03-30T12:36:31.765Z,1.1
2023-03-30T12:37:32.369Z,1.1
2023-03-30T12:38:32.972Z,1.3
2023-03-30T12:39:33.594Z,1.2
2023-03-30T12:40:34.198Z,1.5
2023-03-30T12:41:34.797Z,1.5
2023-03-30T12:42:35.395Z,1.5
2023-03-30T12:43:36.018Z,1.7
2023-03-30T12:44:36.668Z,1.3
2023-03-30T12:45:37.346Z,1.2
2023-03-30T12:46:38.217Z,1.4
2023-03-30T12:47:38.951Z,1.5
2023-03-30T12:48:39.532Z,1.4
2023-03-30T12:49:40.134Z,1.6
2023-03-30T12:50:40.736Z,1.7
2023-03-30T12:51:41.336Z,1.6
2023-03-30T12:52:41.940Z,1.6
2023-03-30T12:53:42.535Z,1.6
2023-03-30T12:54:43.136Z,1.7
2023-03-30T12:55:43.745Z,1.5
2023-03-30T12:56:44.374Z,1.4
2023-03-30T12:57:44.943Z,1.9
2023-03-30T12:58:45.543Z,1.8
2023-03-30T12:59:46.141Z,1.8
2023-03-30T13:00:46.793Z,2.2
2023-03-30T13:01:47.338Z,2.1
2023-03-30T13:02:47.969Z,1.8
2023-03-30T13:03:48.582Z,1.8
2023-03-30T13:04:49.282Z,2.3
2023-03-30T13:05:49.796Z,2.3
2023-03-30T13:06:50.398Z,2.0
2023-03-30T13:07:51.019Z,2.3
2023-03-30T13:08:51.618Z,1.9
2023-03-30T13:09:52.219Z,2.1
2023-03-30T13:10:52.819Z,1.7
2023-03-30T13:11:53.441Z,1.9
2023-03-30T13:12:54.033Z,1.8
2023-03-30T13:13:54.633Z,2.1
2023-03-30T13:14:55.251Z,1.8
2023-03-30T13:15:55.850Z,1.6
2023-03-30T13:16:56.488Z,1.8
2023-03-30T13:17:57.129Z,1.8
2023-03-30T13:18:57.700Z,1.5
2023-03-30T13:19:58.297Z,2.1
2023-03-30T13:20:58.952Z,1.8
2023-03-30T13:21:59.500Z,1.6
2023-03-30T13:23:00.109Z,2.6
2023-03-30T13:24:00.694Z,2.2
2023-03-30T13:25:01.300Z,2.4
2023-03-30T13:26:02.133Z,2.0
2023-03-30T13:27:02.921Z,2.6
2023-03-30T13:28:03.522Z,1.9
2023-03-30T13:29:04.123Z,2.8
2023-03-30T13:30:04.730Z,2.3
2023-03-30T13:31:05.429Z,1.9
2023-03-30T13:32:06.010Z,1.6
2023-03-30T13:33:06.652Z,1.7
2023-03-30T13:34:07.230Z,1.7
2023-03-30T13:35:08.145Z,2.2
2023-03-30T13:36:09.260Z,1.7
2023-03-30T13:37:09.430Z,2.3
2023-03-30T13:38:10.017Z,1.8
2023-03-30T13:39:10.609Z,1.9
2023-03-30T13:40:11.244Z,1.7
2023-03-30T13:41:11.819Z,2.2
2023-03-30T13:42:12.424Z,1.4
2023-03-30T13:43:13.044Z,1.9
2023-03-30T13:44:13.660Z,2.1
2023-03-30T13:45:14.259Z,2.5
2023-03-30T13:46:17.495Z,2.3
2023-03-30T13:47:15.563Z,2.3
2023-03-30T13:48:16.136Z,2.3
2023-03-30T13:49:16.722Z,2.7
2023-03-30T13:50:17.320Z,2.1
2023-03-30T13:51:17.937Z,2.7
2023-03-30T13:52:18.543Z,2.3
2023-03-30T13:53:19.170Z,2.6
2023-03-30T13:54:19.802Z,2.5
2023-03-30T13:55:20.373Z,2.6
2023-03-30T13:56:20.974Z,2.5
2023-03-30T13:57:21.614Z,2.4